Terminal Aerodrome Forecast
Issued by NWS Brownsville, TX

Home | Current Version | Previous Version | Text Only | Print | Product List | Glossary On
Versions: 1 2 3 4 5 6 7 8 9 10 11 12 13 14 15 16 17 18 19 20 21 22 23 24 25 26 27 28 29 30 31
303
FTUS44 KBRO 040537
TAFHRL
TAF
KHRL 040537Z 0406/0506 36008KT P6SM -RA SCT008 BKN015 OVC020
      TEMPO 0406/0407 BKN007
     FM042100 01010KT 4SM -RA BR OVC008=

USA.gov is the U.S. government's official web portal to all federal, state and local government web resources and services.